Time;durP1;ratioP1;P1;durP2;ratioP2;P2;SDS_P1;SDS_P2;PMS_P1;PMS_P2;Temp;Humidity;BMP_temperature;BMP_pressure;BME280_temperature;BME280_humidity;BME280_pressure;Samples;Min_cycle;Max_cycle;Signal;HPM_P1;HPM_P2
2023/10/20 00:00:14;;;;;;;;;37.25;32.00;;;;;14.19;100.00;98608.75;4991166;28;10479;-70
2023/10/20 00:02:42;;;;;;;;;47.00;40.25;;;;;14.08;100.00;98601.72;4975114;28;10385;-70
2023/10/20 00:05:09;;;;;;;;;43.00;36.25;;;;;13.99;100.00;98597.94;4991082;28;10510;-70
2023/10/20 00:07:36;;;;;;;;;47.00;38.25;;;;;13.98;100.00;98594.44;4980788;28;10270;-70
2023/10/20 00:10:03;;;;;;;;;45.50;35.75;;;;;14.00;100.00;98594.16;4990931;28;10295;-70
2023/10/20 00:12:30;;;;;;;;;46.50;39.75;;;;;13.93;100.00;98594.41;4989005;28;11065;-70
2023/10/20 00:14:57;;;;;;;;;41.25;35.50;;;;;13.98;100.00;98589.03;4966744;28;10387;-70
2023/10/20 00:17:23;;;;;;;;;41.25;34.50;;;;;13.98;100.00;98580.09;4990684;28;10413;-70
2023/10/20 00:19:51;;;;;;;;;42.50;34.50;;;;;13.91;100.00;98574.16;4955945;28;10592;-70
2023/10/20 00:22:17;;;;;;;;;42.75;37.75;;;;;13.84;100.00;98561.69;4991262;28;11020;-70
2023/10/20 00:24:45;;;;;;;;;37.25;32.50;;;;;13.90;100.00;98561.72;4982202;28;10417;-70
2023/10/20 00:27:14;;;;;;;;;33.25;31.75;;;;;13.91;100.00;98569.56;4938171;28;10183;-70
2023/10/20 00:29:41;;;;;;;;;45.00;36.75;;;;;13.92;100.00;98575.78;4961812;28;10407;-69
2023/10/20 00:32:10;;;;;;;;;34.00;33.75;;;;;13.84;100.00;98572.53;4953780;28;10408;-69
2023/10/20 00:34:37;;;;;;;;;41.00;37.75;;;;;13.75;100.00;98563.34;4962200;28;10965;-69
2023/10/20 00:37:04;;;;;;;;;51.25;36.25;;;;;13.72;100.00;98563.06;4972336;28;10429;-70
2023/10/20 00:39:31;;;;;;;;;38.00;34.75;;;;;13.53;100.00;98573.59;4975919;28;10358;-69
2023/10/20 00:41:57;;;;;;;;;38.25;38.00;;;;;13.48;100.00;98566.28;4969590;28;10346;-70
2023/10/20 00:44:23;;;;;;;;;34.50;30.00;;;;;13.38;100.00;98576.28;4953577;28;10531;-69
2023/10/20 00:46:50;;;;;;;;;38.25;36.25;;;;;13.33;100.00;98574.41;4984051;28;10334;-70
2023/10/20 00:49:18;;;;;;;;;37.50;34.50;;;;;13.32;100.00;98568.16;4986044;28;11194;-70
2023/10/20 00:51:45;;;;;;;;;35.00;31.00;;;;;13.35;100.00;98569.53;4971651;28;11241;-72
2023/10/20 00:54:13;;;;;;;;;37.50;32.75;;;;;13.33;100.00;98563.59;4970991;28;11103;-70
2023/10/20 00:56:44;;;;;;;;;30.00;27.25;;;;;13.34;100.00;98576.81;4971823;28;10248;-69
2023/10/20 00:59:11;;;;;;;;;39.00;37.25;;;;;13.32;100.00;98576.25;4975399;28;10340;-69
2023/10/20 01:01:38;;;;;;;;;45.25;39.00;;;;;13.26;100.00;98571.13;4982101;28;10430;-70
2023/10/20 01:04:05;;;;;;;;;35.00;32.00;;;;;13.24;100.00;98573.28;4981209;28;11159;-69
2023/10/20 01:06:35;;;;;;;;;36.75;34.50;;;;;13.20;100.00;98564.06;4970802;28;10418;-69
2023/10/20 01:09:01;;;;;;;;;43.00;36.00;;;;;13.14;100.00;98549.75;4972532;28;10357;-68
2023/10/20 01:11:29;;;;;;;;;39.75;32.75;;;;;13.20;100.00;98548.66;4972666;28;11148;-70
2023/10/20 01:13:56;;;;;;;;;38.50;33.25;;;;;13.19;100.00;98546.22;4989958;28;10658;-69
2023/10/20 01:16:23;;;;;;;;;36.25;34.25;;;;;13.13;100.00;98537.31;4965146;28;10436;-69
2023/10/20 01:18:50;;;;;;;;;34.75;34.75;;;;;13.10;100.00;98538.66;4956067;28;10594;-69
2023/10/20 01:21:17;;;;;;;;;36.00;34.25;;;;;13.17;100.00;98533.00;4947927;28;10549;-70
2023/10/20 01:23:44;;;;;;;;;43.50;36.75;;;;;13.17;100.00;98540.28;4989920;28;10264;-69
2023/10/20 01:26:10;;;;;;;;;38.50;36.75;;;;;13.13;100.00;98542.72;4960352;28;10570;-69
2023/10/20 01:28:37;;;;;;;;;36.75;33.00;;;;;13.08;100.00;98548.09;4952423;28;10663;-69
2023/10/20 01:31:04;;;;;;;;;43.75;36.00;;;;;13.02;100.00;98543.78;4973509;28;10505;-68
2023/10/20 01:33:30;;;;;;;;;36.25;34.25;;;;;13.01;100.00;98542.97;4980417;28;10783;-68
2023/10/20 01:35:57;;;;;;;;;37.75;36.75;;;;;13.02;100.00;98543.78;4976051;28;10568;-68
2023/10/20 01:38:23;;;;;;;;;45.00;38.25;;;;;13.01;100.00;98526.75;4992808;28;10744;-68
2023/10/20 01:40:50;;;;;;;;;37.75;34.75;;;;;13.02;100.00;98524.88;4993034;28;10641;-68
2023/10/20 01:43:16;;;;;;;;;39.00;33.75;;;;;13.03;100.00;98512.97;4956747;28;10506;-68
2023/10/20 01:45:44;;;;;;;;;33.25;32.50;;;;;13.08;100.00;98508.41;4941184;28;10434;-68
2023/10/20 01:48:11;;;;;;;;;37.50;35.00;;;;;13.00;100.00;98524.31;4987127;28;10193;-68
2023/10/20 01:50:37;;;;;;;;;44.50;38.00;;;;;12.93;100.00;98529.97;4981582;28;10406;-69
2023/10/20 01:53:04;;;;;;;;;36.50;31.25;;;;;12.92;100.00;98512.13;4976029;28;10523;-68
2023/10/20 01:55:30;;;;;;;;;38.00;34.25;;;;;12.95;100.00;98506.19;4993588;28;10407;-68
2023/10/20 01:57:58;;;;;;;;;37.75;34.00;;;;;12.94;100.00;98504.59;4982156;28;10499;-68
2023/10/20 02:00:25;;;;;;;;;43.25;34.00;;;;;12.89;100.00;98501.06;4962193;28;10448;-68
2023/10/20 02:02:51;;;;;;;;;43.50;36.75;;;;;12.83;100.00;98492.94;4972525;28;10654;-68
2023/10/20 02:05:18;;;;;;;;;38.25;34.25;;;;;12.85;100.00;98492.69;4985632;28;12031;-68
2023/10/20 02:07:44;;;;;;;;;36.00;33.25;;;;;12.86;100.00;98481.63;4980322;28;10584;-68
2023/10/20 02:10:11;;;;;;;;;39.00;34.00;;;;;12.87;100.00;98485.94;4979651;28;10421;-68
2023/10/20 02:12:38;;;;;;;;;38.75;33.50;;;;;12.81;100.00;98478.91;4984116;28;10586;-68
2023/10/20 02:15:06;;;;;;;;;34.75;33.00;;;;;12.79;100.00;98489.16;4975768;28;10413;-68
2023/10/20 02:17:33;;;;;;;;;40.50;35.25;;;;;12.82;100.00;98472.44;4991607;28;10455;-68
2023/10/20 02:20:00;;;;;;;;;33.50;31.00;;;;;12.77;100.00;98464.31;4960034;28;10631;-68
2023/10/20 02:22:26;;;;;;;;;37.00;36.75;;;;;12.74;100.00;98461.34;4975838;28;10752;-68
2023/10/20 02:24:53;;;;;;;;;45.25;37.25;;;;;12.70;100.00;98455.66;4967267;28;10435;-68
2023/10/20 02:27:20;;;;;;;;;35.50;30.75;;;;;12.68;100.00;98448.91;4967151;28;10750;-68
2023/10/20 02:29:46;;;;;;;;;38.75;36.00;;;;;12.56;100.00;98436.47;4972700;28;10499;-68
2023/10/20 02:32:13;;;;;;;;;37.25;34.00;;;;;12.61;100.00;98435.69;4992004;28;10574;-68
2023/10/20 02:34:40;;;;;;;;;39.75;35.00;;;;;12.56;100.00;98423.00;4986591;28;10446;-68
2023/10/20 02:37:07;;;;;;;;;35.25;31.00;;;;;12.55;100.00;98415.13;4979456;28;11394;-68
2023/10/20 02:39:33;;;;;;;;;40.75;34.25;;;;;12.49;100.00;98408.13;4971900;28;10747;-68
2023/10/20 02:42:00;;;;;;;;;47.75;38.00;;;;;12.50;100.00;98397.06;4973167;28;10626;-68
2023/10/20 02:44:27;;;;;;;;;39.75;37.00;;;;;12.41;100.00;98390.56;4971806;28;10795;-68
2023/10/20 02:46:54;;;;;;;;;36.50;30.00;;;;;12.46;100.00;98370.88;4971298;28;10787;-68
2023/10/20 02:49:21;;;;;;;;;39.25;31.50;;;;;12.47;100.00;98376.00;4955296;28;10417;-68
2023/10/20 02:51:47;;;;;;;;;39.25;35.00;;;;;12.46;100.00;98370.88;4990762;28;10345;-68
2023/10/20 02:54:14;;;;;;;;;44.00;35.50;;;;;12.34;100.00;98376.50;4979851;28;11131;-68
2023/10/20 02:56:40;;;;;;;;;43.75;33.00;;;;;12.21;100.00;98388.63;4972725;28;10513;-68
2023/10/20 02:59:07;;;;;;;;;40.00;36.25;;;;;12.11;100.00;98380.47;4955578;28;10466;-68
2023/10/20 03:01:34;;;;;;;;;41.00;37.25;;;;;12.17;100.00;98374.03;4972809;28;11361;-68
2023/10/20 03:04:01;;;;;;;;;38.00;35.25;;;;;12.20;100.00;98376.22;4982006;28;11475;-68
2023/10/20 03:06:27;;;;;;;;;48.00;37.25;;;;;12.12;100.00;98360.56;4985365;28;10764;-68
2023/10/20 03:08:54;;;;;;;;;31.75;30.00;;;;;12.16;100.00;98358.13;4949094;28;10762;-68
2023/10/20 03:11:20;;;;;;;;;44.50;38.00;;;;;12.12;100.00;98355.97;4955371;28;10637;-68
2023/10/20 03:13:47;;;;;;;;;34.00;31.00;;;;;12.00;99.14;98351.88;4961493;28;10914;-68
2023/10/20 03:16:13;;;;;;;;;36.50;32.25;;;;;11.95;100.00;98349.97;4991624;28;10761;-68
2023/10/20 03:18:40;;;;;;;;;33.50;30.50;;;;;11.98;100.00;98354.03;4990377;28;10802;-68
2023/10/20 03:21:07;;;;;;;;;33.00;31.50;;;;;12.02;100.00;98355.91;4980850;28;10560;-68
2023/10/20 03:23:33;;;;;;;;;36.00;32.50;;;;;11.95;100.00;98354.53;4967141;28;11357;-68
2023/10/20 03:26:00;;;;;;;;;35.75;32.25;;;;;11.97;100.00;98347.00;4970876;28;10682;-68
2023/10/20 03:28:28;;;;;;;;;40.75;31.75;;;;;11.88;100.00;98344.81;4980644;28;10580;-68
2023/10/20 03:30:54;;;;;;;;;41.50;33.75;;;;;11.91;100.00;98345.34;4957448;28;10498;-68
2023/10/20 03:33:21;;;;;;;;;37.00;33.25;;;;;11.89;100.00;98342.94;4991642;28;10636;-69
2023/10/20 03:35:48;;;;;;;;;46.50;39.25;;;;;11.81;99.92;98324.53;4975991;28;10814;-69
2023/10/20 03:38:14;;;;;;;;;34.75;32.00;;;;;11.78;99.98;98306.19;4982014;28;10812;-69
2023/10/20 03:40:41;;;;;;;;;31.00;31.00;;;;;11.87;100.00;98308.16;4974042;28;10571;-69
2023/10/20 03:43:10;;;;;;;;;41.75;36.50;;;;;11.74;99.56;98313.19;4974102;28;10795;-70
2023/10/20 03:45:51;;;;;;;;;36.00;32.00;;;;;11.76;100.00;98309.16;4973799;28;10867;-69
2023/10/20 03:48:23;;;;;;;;;37.00;32.50;;;;;11.77;100.00;98301.88;4978527;28;10574;-69
2023/10/20 03:50:51;;;;;;;;;39.75;34.00;;;;;11.74;100.00;98291.63;4985655;28;10753;-69
2023/10/20 03:53:22;;;;;;;;;35.25;32.50;;;;;11.71;99.02;98290.28;4976154;28;11472;-69
2023/10/20 03:56:00;;;;;;;;;39.50;33.00;;;;;11.68;100.00;98306.97;4973498;28;10884;-69
2023/10/20 03:58:29;;;;;;;;;44.75;36.00;;;;;11.67;99.31;98313.44;4973853;28;10729;-69
2023/10/20 04:01:02;;;;;;;;;33.00;32.25;;;;;11.58;97.93;98323.09;4989638;28;10819;-69
2023/10/20 04:03:30;;;;;;;;;33.75;31.50;;;;;11.58;99.72;98315.00;4991460;28;10876;-69
2023/10/20 04:05:57;;;;;;;;;37.75;36.75;;;;;11.47;98.44;98311.47;5045380;22;11495;-66
2023/10/20 04:08:24;;;;;;;;;37.50;33.00;;;;;11.47;99.64;98294.50;5048255;28;10793;-66
2023/10/20 04:10:57;;;;;;;;;32.75;27.50;;;;;11.54;99.84;98271.63;5031334;28;10959;-67
2023/10/20 04:13:24;;;;;;;;;38.50;35.25;;;;;11.57;99.99;98265.72;5043274;28;10836;-66
2023/10/20 04:15:52;;;;;;;;;35.75;33.00;;;;;11.45;98.65;98261.63;5025493;28;10867;-66
2023/10/20 04:18:19;;;;;;;;;38.25;34.75;;;;;11.45;99.30;98264.31;5020272;28;10848;-66
2023/10/20 04:20:48;;;;;;;;;41.75;37.25;;;;;11.50;99.27;98269.72;5018178;28;10777;-65
2023/10/20 04:23:18;;;;;;;;;35.75;35.50;;;;;11.47;98.76;98265.69;5027667;28;10969;-67
2023/10/20 04:25:54;;;;;;;;;30.50;29.50;;;;;11.49;99.38;98257.31;5026839;28;10829;-66
2023/10/20 04:58:35;;;;;;;;;39.50;32.75;;;;;11.32;98.68;98228.72;5003606;28;10841;-66
2023/10/20 05:01:16;;;;;;;;;29.75;27.25;;;;;11.36;99.68;98235.19;5012844;28;11041;-66
2023/10/20 05:03:45;;;;;;;;;29.75;28.75;;;;;11.36;97.99;98226.31;5040546;28;10668;-66
2023/10/20 05:08:58;;;;;;;;;36.25;29.00;;;;;11.28;98.66;98216.84;5025156;28;10800;-65
2023/10/20 05:11:24;;;;;;;;;36.50;29.00;;;;;11.24;98.73;98193.41;5022427;28;10736;-66
2023/10/20 05:13:51;;;;;;;;;36.75;30.75;;;;;11.26;98.87;98192.06;5008615;28;10796;-66
2023/10/20 05:16:18;;;;;;;;;34.00;30.75;;;;;11.30;98.95;98187.78;5029197;28;11117;-65
2023/10/20 05:18:44;;;;;;;;;34.50;30.00;;;;;11.30;98.51;98193.16;5020933;28;11015;-67
2023/10/20 05:21:12;;;;;;;;;41.50;29.75;;;;;11.28;99.38;98195.28;5026418;28;10835;-66
2023/10/20 05:23:39;;;;;;;;;38.25;34.75;;;;;11.18;97.75;98194.44;5021777;28;10744;-66
2023/10/20 05:26:08;;;;;;;;;40.00;33.25;;;;;11.10;98.23;98193.06;5027289;28;10836;-66
2023/10/20 05:28:35;;;;;;;;;35.75;32.50;;;;;11.09;98.49;98191.44;5019970;28;10823;-67
2023/10/20 05:31:02;;;;;;;;;38.25;34.25;;;;;11.05;99.73;98180.38;5041073;28;11014;-67
2023/10/20 05:33:29;;;;;;;;;33.00;31.00;;;;;11.11;99.49;98173.16;5015453;28;10976;-67
2023/10/20 05:36:03;;;;;;;;;34.75;28.50;;;;;11.09;99.09;98159.94;5021129;28;10835;-67
2023/10/20 05:38:29;;;;;;;;;35.75;31.00;;;;;11.07;99.33;98147.84;5024950;28;10757;-66
2023/10/20 05:40:58;;;;;;;;;38.25;32.00;;;;;11.07;99.43;98134.38;5025030;28;11521;-66
2023/10/20 05:43:25;;;;;;;;;34.00;29.75;;;;;11.15;99.02;98141.94;5026717;28;11006;-67
2023/10/20 05:45:52;;;;;;;;;36.75;33.75;;;;;11.07;98.92;98150.53;5025773;28;11432;-66
2023/10/20 05:48:19;;;;;;;;;32.50;27.00;;;;;11.06;99.14;98149.72;5037069;28;10822;-65
2023/10/20 05:50:45;;;;;;;;;34.00;29.50;;;;;11.13;99.72;98157.53;5018172;28;11506;-66
2023/10/20 05:53:12;;;;;;;;;34.25;32.00;;;;;11.12;99.08;98156.72;5009447;28;11316;-66
2023/10/20 05:55:38;;;;;;;;;37.75;29.00;;;;;11.12;98.99;98155.91;5008293;28;10731;-65
2023/10/20 05:58:06;;;;;;;;;34.00;27.75;;;;;11.02;98.84;98163.94;5007709;28;11552;-66
2023/10/20 06:00:33;;;;;;;;;38.25;33.25;;;;;11.01;99.64;98163.13;5007445;28;10913;-67
2023/10/20 06:03:18;;;;;;;;;40.25;34.75;;;;;10.98;98.59;98173.63;5009286;28;10841;-67
2023/10/20 06:05:45;;;;;;;;;35.50;32.00;;;;;10.93;98.70;98166.34;5008994;28;11076;-66
2023/10/20 06:08:11;;;;;;;;;31.00;26.50;;;;;11.00;99.45;98163.41;5009161;28;10884;-67
2023/10/20 06:10:38;;;;;;;;;31.50;30.00;;;;;11.02;99.24;98162.09;5009271;28;10902;-67
2023/10/20 06:13:04;;;;;;;;;39.50;32.50;;;;;10.96;97.92;98156.94;5016806;28;10809;-66
2023/10/20 06:15:31;;;;;;;;;32.75;29.75;;;;;10.86;98.81;98161.22;5015628;28;10814;-66
2023/10/20 06:17:58;;;;;;;;;35.25;29.50;;;;;10.89;98.81;98163.34;5008974;28;11681;-66
2023/10/20 06:20:24;;;;;;;;;38.75;35.25;;;;;10.87;98.29;98165.50;5012694;28;11155;-66
2023/10/20 06:22:51;;;;;;;;;30.50;28.25;;;;;10.85;99.80;98159.56;5012681;28;11069;-66
2023/10/20 06:25:18;;;;;;;;;43.25;32.00;;;;;10.83;99.11;98164.41;5012577;28;11055;-66
2023/10/20 06:27:45;;;;;;;;;36.50;32.25;;;;;10.74;99.35;98155.22;5010801;28;11010;-67
2023/10/20 06:30:21;;;;;;;;;32.00;28.00;;;;;10.76;99.02;98153.06;5012730;28;11803;-66
2023/10/20 06:32:56;;;;;;;;;35.25;30.75;;;;;10.74;98.86;98155.22;5011213;28;11640;-67
2023/10/20 06:35:32;;;;;;;;;33.50;30.25;;;;;10.71;97.92;98155.72;5012579;28;10989;-66
2023/10/20 06:40:35;;;;;;;;;30.50;26.25;;;;;10.63;99.42;98169.69;5012661;28;11061;-67
2023/10/20 06:43:02;;;;;;;;;31.75;29.25;;;;;10.62;99.84;98158.13;5011032;28;11620;-66
2023/10/20 06:45:31;;;;;;;;;31.25;27.75;;;;;10.69;100.00;98149.78;5011315;28;11034;-66
2023/10/20 06:47:58;;;;;;;;;29.25;26.75;;;;;10.76;99.45;98144.19;5010822;28;10775;-67
2023/10/20 06:50:25;;;;;;;;;28.00;26.00;;;;;10.64;98.18;98144.38;5012013;28;10843;-66
2023/10/20 06:52:53;;;;;;;;;36.50;28.25;;;;;10.57;98.81;98133.88;5026813;28;10751;-66
2023/10/20 06:55:19;;;;;;;;;26.75;25.75;;;;;10.52;98.12;98133.84;5011228;28;11493;-66
2023/10/20 06:58:05;;;;;;;;;25.25;24.00;;;;;10.59;100.00;98126.34;5010816;28;10735;-65
2023/10/20 07:00:32;;;;;;;;;23.25;21.50;;;;;10.58;98.81;98142.75;5011126;28;10724;-66
2023/10/20 07:02:58;;;;;;;;;29.00;25.25;;;;;10.45;97.72;98137.81;5011543;28;10539;-67
2023/10/20 07:05:25;;;;;;;;;27.50;23.00;;;;;10.41;99.34;98126.75;5011220;28;10738;-67
2023/10/20 07:07:52;;;;;;;;;30.50;28.25;;;;;10.38;99.50;98130.81;5010148;28;11536;-66
2023/10/20 07:10:21;;;;;;;;;30.75;27.75;;;;;10.33;99.20;98136.16;5011885;28;10925;-65
2023/10/20 07:12:48;;;;;;;;;30.50;27.25;;;;;10.35;99.57;98134.00;5010067;28;11125;-67
2023/10/20 07:15:16;;;;;;;;;25.75;24.00;;;;;10.30;99.60;98136.66;5019872;28;10817;-66
2023/10/20 07:17:42;;;;;;;;;33.00;27.75;;;;;10.22;99.19;98129.06;5029432;28;10884;-67
2023/10/20 07:20:09;;;;;;;;;27.00;26.75;;;;;10.20;100.00;98131.16;5030002;28;10973;-66
2023/10/20 07:22:35;;;;;;;;;22.75;19.50;;;;;10.21;99.91;98138.19;5030179;28;10715;-67
2023/10/20 07:25:03;;;;;;;;;33.00;28.75;;;;;10.17;99.99;98131.72;5029067;28;10800;-66
2023/10/20 07:27:29;;;;;;;;;23.00;20.50;;;;;10.27;100.00;98131.78;5028189;28;10905;-66
2023/10/20 07:29:57;;;;;;;;;19.25;17.25;;;;;10.25;99.66;98122.34;5028199;28;10879;-67
2023/10/20 07:32:23;;;;;;;;;28.25;23.25;;;;;10.29;100.00;98120.78;5029945;28;10847;-66
2023/10/20 07:34:50;;;;;;;;;25.75;21.25;;;;;10.25;98.23;98122.34;5030199;28;10939;-67
2023/10/20 07:37:18;;;;;;;;;28.25;24.50;;;;;10.12;99.23;98110.94;5029972;28;11057;-67
2023/10/20 07:39:44;;;;;;;;;24.50;22.00;;;;;10.13;99.45;98127.91;5029519;28;10805;-66
2023/10/20 07:42:11;;;;;;;;;27.00;25.00;;;;;10.22;100.00;98128.25;5019276;28;10791;-66
2023/10/20 07:44:38;;;;;;;;;27.50;21.75;;;;;10.19;99.62;98115.31;5029601;28;10900;-67
2023/10/20 07:47:04;;;;;;;;;19.75;18.25;;;;;10.16;99.03;98119.31;5029168;28;10814;-67
2023/10/20 07:49:31;;;;;;;;;20.50;18.75;;;;;10.14;99.77;98110.72;5029801;28;10699;-66
2023/10/20 07:51:57;;;;;;;;;28.00;20.50;;;;;10.14;99.04;98106.16;5029801;28;10807;-67
2023/10/20 07:54:26;;;;;;;;;25.75;25.25;;;;;10.02;98.15;98110.91;5029391;28;10805;-67
2023/10/20 07:56:52;;;;;;;;;23.00;18.50;;;;;9.97;99.49;98124.31;5029289;28;10855;-66
2023/10/20 07:59:18;;;;;;;;;25.50;20.50;;;;;9.99;99.79;98110.59;5029383;28;10819;-67
2023/10/20 08:01:45;;;;;;;;;17.75;17.75;;;;;9.98;99.67;98122.41;5029377;28;10793;-67
2023/10/20 08:04:11;;;;;;;;;22.00;20.25;;;;;9.88;99.38;98113.22;5027605;28;10703;-66
2023/10/20 08:06:38;;;;;;;;;17.75;15.75;;;;;9.91;100.00;98107.31;5019765;28;10773;-66
2023/10/20 08:09:07;;;;;;;;;17.00;16.25;;;;;9.87;99.41;98105.41;5028732;28;10815;-67
2023/10/20 08:11:34;;;;;;;;;19.75;17.25;;;;;9.86;99.08;98112.66;5020890;28;10816;-67
2023/10/20 08:14:00;;;;;;;;;10.50;8.25;;;;;9.75;98.76;98104.75;5018259;28;10803;-68
2023/10/20 08:16:27;;;;;;;;;14.50;14.00;;;;;9.73;99.75;98094.28;5028867;28;10984;-67
2023/10/20 08:18:53;;;;;;;;;17.00;15.00;;;;;9.73;99.72;98104.22;5027716;28;10647;-68
2023/10/20 08:21:20;;;;;;;;;15.00;14.25;;;;;9.77;99.98;98089.22;5043802;28;10642;-67
2023/10/20 08:23:46;;;;;;;;;15.00;15.00;;;;;9.79;100.00;98079.00;5027256;28;10708;-66
2023/10/20 08:26:15;;;;;;;;;13.00;11.00;;;;;9.99;100.00;98086.41;5027109;28;10415;-61
2023/10/20 08:28:42;;;;;;;;;16.25;12.25;;;;;9.97;98.24;98073.25;5027123;28;11265;-67
2023/10/20 08:31:14;;;;;;;;;18.00;17.50;;;;;9.89;99.54;98065.66;5028408;28;10567;-67
2023/10/20 08:33:41;;;;;;;;;12.00;11.25;;;;;9.90;99.86;98073.44;5028535;28;10591;-67
2023/10/20 08:36:20;;;;;;;;;10.00;10.00;;;;;9.88;99.88;98086.34;5027911;28;10490;-67
2023/10/20 08:38:51;;;;;;;;;12.75;11.25;;;;;9.89;99.15;98066.47;5027480;28;10476;-63
2023/10/20 08:41:21;;;;;;;;;12.00;11.75;;;;;9.83;99.03;98085.47;5015125;28;10403;-67
2023/10/20 08:43:48;;;;;;;;;8.50;8.50;;;;;9.74;98.45;98074.41;5008084;28;10503;-67
2023/10/20 08:46:16;;;;;;;;;8.00;8.00;;;;;9.74;99.46;98084.34;5008132;28;11201;-66
2023/10/20 08:48:44;;;;;;;;;10.00;8.00;;;;;9.75;99.22;98080.59;5008751;28;10986;-66
2023/10/20 08:51:13;;;;;;;;;8.50;8.50;;;;;9.70;99.33;98078.66;5008822;28;10424;-65
2023/10/20 08:53:44;;;;;;;;;10.00;10.00;;;;;9.77;99.19;98062.34;5008506;28;10352;-66
2023/10/20 08:56:12;;;;;;;;;9.25;9.25;;;;;9.68;99.12;98064.66;5008219;28;10473;-66
2023/10/20 08:58:38;;;;;;;;;10.25;9.00;;;;;9.70;99.25;98059.06;5008601;28;10145;-66
2023/10/20 09:01:06;;;;;;;;;10.50;8.50;;;;;9.61;97.65;98056.84;5008565;28;10292;-66
2023/10/20 09:03:40;;;;;;;;;6.25;6.25;;;;;9.61;99.39;98064.09;5008475;28;10356;-66
2023/10/20 09:06:11;;;;;;;;;8.50;6.00;;;;;9.56;99.26;98058.66;5023021;28;10517;-66
2023/10/20 09:08:38;;;;;;;;;9.00;9.00;;;;;9.60;98.66;98071.34;5008517;28;10373;-67
2023/10/20 09:11:08;;;;;;;;;7.50;7.50;;;;;9.52;98.58;98060.25;5008430;28;10386;-65
2023/10/20 09:13:37;;;;;;;;;7.00;6.25;;;;;9.60;99.39;98060.59;5008635;28;10284;-66
2023/10/20 09:16:07;;;;;;;;;7.00;6.25;;;;;9.67;99.25;98057.69;5008260;28;10379;-66
2023/10/20 09:18:49;;;;;;;;;6.00;6.00;;;;;9.70;99.61;98054.50;5008184;28;10287;-66
2023/10/20 09:21:19;;;;;;;;;7.25;7.00;;;;;9.72;99.36;98060.41;5008446;28;10300;-67
2023/10/20 09:24:11;;;;;;;;;6.75;6.00;;;;;9.53;98.76;98061.88;5008179;28;10189;-65
2023/10/20 09:26:39;;;;;;;;;7.50;5.25;;;;;9.56;99.56;98045.25;5007814;28;10276;-66
2023/10/20 09:29:07;;;;;;;;;6.00;5.00;;;;;9.57;99.34;98060.31;5008167;28;10316;-66
2023/10/20 09:31:37;;;;;;;;;3.50;3.50;;;;;9.56;99.63;98062.19;5008157;28;10167;-65
2023/10/20 09:34:06;;;;;;;;;5.00;5.00;;;;;9.59;99.35;98056.28;5008325;28;10193;-66
2023/10/20 09:36:35;;;;;;;;;4.00;4.00;;;;;9.50;99.01;98059.69;5007836;28;10416;-66
2023/10/20 09:39:05;;;;;;;;;3.50;3.50;;;;;9.50;100.00;98055.13;5008263;28;10275;-66
2023/10/20 09:41:34;;;;;;;;;6.00;3.25;;;;;9.51;98.91;98058.63;5007992;28;10167;-67
2023/10/20 09:44:06;;;;;;;;;3.50;3.50;;;;;9.48;99.63;98049.22;5007979;28;10331;-65
2023/10/20 09:46:46;;;;;;;;;2.00;2.00;;;;;9.46;98.51;98051.34;5007806;28;10378;-66
2023/10/20 09:49:24;;;;;;;;;2.00;2.00;;;;;9.40;98.22;98047.00;5008293;28;10006;-66
2023/10/20 09:51:51;;;;;;;;;2.75;0.75;;;;;9.39;98.95;98042.69;5007868;28;10225;-66
2023/10/20 09:54:22;;;;;;;;;4.00;2.00;;;;;9.37;98.52;98048.31;5010258;28;10232;-66
2023/10/20 09:56:50;;;;;;;;;3.00;2.00;;;;;9.27;99.36;98037.47;5011497;28;10271;-66
2023/10/20 09:59:21;;;;;;;;;1.75;1.75;;;;;9.26;98.53;98035.06;5011916;28;10393;-66
2023/10/20 10:01:48;;;;;;;;;2.50;2.00;;;;;9.27;99.25;98025.94;5011824;28;10201;-66
2023/10/20 10:04:24;;;;;;;;;2.00;2.00;;;;;9.34;98.22;98030.03;5011500;28;10857;-66
2023/10/20 10:06:51;;;;;;;;;2.00;2.00;;;;;9.29;99.69;98027.31;5011971;28;10193;-67
2023/10/20 10:09:18;;;;;;;;;2.00;2.00;;;;;9.29;99.03;98029.19;5011932;28;10208;-68
2023/10/20 10:11:45;;;;;;;;;1.75;1.75;;;;;9.28;99.29;98032.94;5011639;28;10271;-67
2023/10/20 10:14:22;;;;;;;;;3.00;1.50;;;;;9.21;99.69;98014.34;5011603;28;10315;-67
2023/10/20 10:16:54;;;;;;;;;3.00;3.00;;;;;9.29;100.00;98013.06;5011072;28;10356;-68
2023/10/20 10:19:26;;;;;;;;;3.00;3.00;;;;;9.21;99.06;98010.84;5011703;28;10083;-68
2023/10/20 10:21:56;;;;;;;;;2.00;1.75;;;;;9.19;99.36;98010.28;5011709;28;10245;-67
2023/10/20 10:24:25;;;;;;;;;5.00;3.00;;;;;9.14;100.00;98009.19;5011466;28;10373;-67
2023/10/20 10:26:59;;;;;;;;;1.75;1.75;;;;;9.21;100.00;98008.97;5011173;28;10333;-67
2023/10/20 10:29:45;;;;;;;;;2.50;2.50;;;;;9.32;99.92;98007.22;5011246;28;10287;-68
2023/10/20 10:32:19;;;;;;;;;2.50;2.50;;;;;9.28;99.44;98006.09;5011368;28;10168;-68
2023/10/20 10:34:54;;;;;;;;;2.00;2.00;;;;;9.33;99.69;97993.50;5011085;28;10232;-68
2023/10/20 10:37:30;;;;;;;;;2.00;2.00;;;;;9.27;99.06;97983.78;5010928;28;10265;-68
2023/10/20 10:40:10;;;;;;;;;2.00;2.00;;;;;9.25;99.79;97983.25;5011157;28;10847;-68
2023/10/20 10:42:45;;;;;;;;;1.50;1.50;;;;;9.28;99.43;97995.38;5011122;28;10973;-68
2023/10/20 10:45:31;;;;;;;;;3.75;3.75;;;;;9.22;99.40;97982.94;5011257;28;10257;-68
2023/10/20 10:48:08;;;;;;;;;1.25;1.25;;;;;9.10;98.26;97973.19;5010492;28;10416;-68
2023/10/20 10:50:38;;;;;;;;;2.50;2.50;;;;;9.10;99.79;97981.22;5010938;28;11050;-67
2023/10/20 10:53:05;;;;;;;;;2.00;2.00;;;;;9.11;100.00;97969.44;5011086;28;10291;-68
2023/10/20 10:55:31;;;;;;;;;1.25;1.25;;;;;9.17;100.00;97972.97;5011319;28;10276;-66
2023/10/20 10:57:59;;;;;;;;;2.00;2.00;;;;;9.27;100.00;97959.63;5010712;28;10283;-67
2023/10/20 11:00:27;;;;;;;;;1.00;1.00;;;;;9.32;100.00;97953.53;5011300;28;10196;-67
2023/10/20 11:02:56;;;;;;;;;3.75;1.00;;;;;9.22;99.87;97969.53;5010710;28;10158;-67
2023/10/20 11:05:23;;;;;;;;;2.00;2.00;;;;;9.19;99.65;97948.56;5024872;28;10218;-67
2023/10/20 11:07:57;;;;;;;;;5.00;1.75;;;;;9.20;100.00;97937.59;5010569;28;10308;-66
2023/10/20 11:10:26;;;;;;;;;1.25;1.25;;;;;9.27;100.00;97934.66;5010893;28;10315;-70
2023/10/20 11:12:57;;;;;;;;;3.00;2.00;;;;;9.26;99.19;97930.38;5010565;28;10201;-68
2023/10/20 11:15:30;;;;;;;;;1.00;1.00;;;;;9.18;99.49;97922.78;5010598;28;10208;-68
2023/10/20 11:17:59;;;;;;;;;1.00;1.00;;;;;9.21;99.23;97912.34;5010348;28;10309;-67
2023/10/20 11:20:27;;;;;;;;;0.00;0.00;;;;;9.15;98.86;97910.69;5010375;28;10172;-68
2023/10/20 11:22:56;;;;;;;;;4.25;1.50;;;;;9.12;100.00;97895.13;5010701;28;10128;-66
2023/10/20 11:25:24;;;;;;;;;2.00;1.00;;;;;9.17;100.00;97892.47;5010438;28;10233;-68
2023/10/20 11:27:55;;;;;;;;;1.00;1.00;;;;;9.19;99.84;97893.00;5010120;28;10142;-68
2023/10/20 11:30:26;;;;;;;;;1.00;1.00;;;;;9.19;99.92;97884.97;5010245;28;9967;-68
2023/10/20 11:32:54;;;;;;;;;1.00;1.00;;;;;9.18;100.00;97883.34;5009894;28;11018;-68
2023/10/20 11:35:24;;;;;;;;;1.50;1.00;;;;;9.15;99.73;97867.75;5010006;28;10210;-68
2023/10/20 11:37:52;;;;;;;;;3.50;2.00;;;;;9.14;100.00;97872.31;5009609;28;10882;-68
2023/10/20 11:40:20;;;;;;;;;0.75;0.75;;;;;9.13;100.00;97870.69;5024671;28;11127;-68
2023/10/20 11:42:48;;;;;;;;;0.25;0.25;;;;;9.10;99.79;97875.78;5009936;28;10359;-68
2023/10/20 11:45:15;;;;;;;;;0.00;0.00;;;;;9.15;100.00;97870.44;5009758;28;10203;-68
2023/10/20 11:47:42;;;;;;;;;0.00;0.00;;;;;9.14;100.00;97874.19;5024380;28;10141;-68
2023/10/20 11:50:15;;;;;;;;;0.00;0.00;;;;;9.19;100.00;97858.13;5024627;28;10261;-67
2023/10/20 11:52:42;;;;;;;;;1.75;0.75;;;;;9.20;100.00;97859.75;5009527;28;10084;-68
2023/10/20 11:55:10;;;;;;;;;1.00;1.00;;;;;9.19;100.00;97849.25;5008138;28;10183;-67
2023/10/20 11:57:40;;;;;;;;;0.50;0.50;;;;;9.20;100.00;97850.91;5009423;28;10154;-68
2023/10/20 12:00:13;;;;;;;;;2.75;1.00;;;;;9.18;100.00;97840.41;5009494;28;10307;-68
2023/10/20 12:02:40;;;;;;;;;1.00;1.00;;;;;9.19;100.00;97846.56;5009492;28;10171;-67